X  Close Metar Aviation Weather Data     EBBR Brussels Airport
Temperature
29°C Temperature
17°C Dewpoint
48% Humidity



Wind
0 KM/H
0 MPH
0 M/S
0 KTS



Calm
North
Current Conditions

Clear Clear
Pressure 1014.92 (hPa) - 29.97 (inHg)
Visibility 6.2 (mile) - 10 (km)
Airport
Airport-code EBBR

Location: Brussels Airport
Distance: 14 (km)

Metar:
EBBR 110850Z 00000KT CAVOK 29/17 Q1015 NOSIG

Time: 08-11-2020 10:50 CEST